Time;durP1;ratioP1;P1;durP2;ratioP2;P2;SDS_P1;SDS_P2;PMS_P1;PMS_P2;Temp;Humidity;BMP_temperature;BMP_pressure;BME280_temperature;BME280_humidity;BME280_pressure;Samples;Min_cycle;Max_cycle;Signal;HPM_P1;HPM_P2
2021/07/02 00:07:15;;;;;;;4.9;3.1;;;;;;;16.88;100;98221.31;;;;
2021/07/02 00:17:14;;;;;;;9.8;4.4;;;;;;;16.93;100;98227.28;;;;
2021/07/02 00:27:14;;;;;;;8.9;4.6;;;;;;;17.04;100;98241.12;;;;
2021/07/02 00:37:13;;;;;;;9.7;6;;;;;;;17.14;100;98234.3;;;;
2021/07/02 00:47:13;;;;;;;8.7;5;;;;;;;17.23;100;98232.14;;;;
2021/07/02 00:57:13;;;;;;;5.9;3.7;;;;;;;17.21;100;98234.45;;;;
2021/07/02 01:07:12;;;;;;;9.2;5.5;;;;;;;17.11;100;98231.13;;;;
2021/07/02 01:17:12;;;;;;;8.3;5.2;;;;;;;17.02;100;98235.22;;;;
2021/07/02 01:27:11;;;;;;;6.1;3.5;;;;;;;16.97;100;98224.64;;;;
2021/07/02 01:37:12;;;;;;;5.1;4;;;;;;;16.84;100;98223.17;;;;
2021/07/02 01:47:10;;;;;;;5.2;2.6;;;;;;;16.76;100;98218.74;;;;
2021/07/02 01:57:10;;;;;;;5;3.3;;;;;;;16.71;100;98222.52;;;;
2021/07/02 02:07:10;;;;;;;6.4;4;;;;;;;16.74;100;98229.97;;;;
2021/07/02 02:17:09;;;;;;;8.6;3.6;;;;;;;16.77;100;98228.46;;;;
2021/07/02 02:27:09;;;;;;;8;4.6;;;;;;;16.78;100;98230.84;;;;
2021/07/02 02:37:08;;;;;;;14.4;5.9;;;;;;;16.77;100;98220.3;;;;
2021/07/02 02:47:08;;;;;;;5.2;4;;;;;;;16.75;100;98222.6;;;;
2021/07/02 02:57:07;;;;;;;5.6;3.5;;;;;;;16.87;100;98236.09;;;;
2021/07/02 03:07:07;;;;;;;5.8;3.5;;;;;;;17.13;100;98243.61;;;;
2021/07/02 03:17:07;;;;;;;9.2;3.5;;;;;;;17.26;100;98261.38;;;;
2021/07/02 03:27:06;;;;;;;5.9;3;;;;;;;17.27;100;98265.69;;;;
2021/07/02 03:37:06;;;;;;;7.7;4.2;;;;;;;17.34;100;98282.97;;;;
2021/07/02 03:47:06;;;;;;;6;3.9;;;;;;;17.38;100;98283.03;;;;
2021/07/02 03:57:11;;;;;;;6.9;4.4;;;;;;;17.28;100;98280.89;;;;
2021/07/02 04:07:05;;;;;;;8.5;4.6;;;;;;;17.23;100;98276.51;;;;
2021/07/02 04:17:05;;;;;;;7.7;4.2;;;;;;;17.24;100;98274.58;;;;
2021/07/02 04:27:04;;;;;;;8.8;5.6;;;;;;;17;100;98273.72;;;;
2021/07/02 04:37:04;;;;;;;8.6;6.7;;;;;;;17.11;100;98274.7;;;;
2021/07/02 04:47:04;;;;;;;10.6;5.4;;;;;;;17.25;100;98273.44;;;;
2021/07/02 04:57:03;;;;;;;12.3;7.5;;;;;;;17.11;100;98287.55;;;;
2021/07/02 05:07:03;;;;;;;11.3;7.3;;;;;;;16.98;100;98303.21;;;;
2021/07/02 05:17:04;;;;;;;10.8;6.3;;;;;;;17.01;100;98305.22;;;;
2021/07/02 05:27:02;;;;;;;9.5;6.6;;;;;;;16.74;100;98308.1;;;;
2021/07/02 05:37:02;;;;;;;9.8;6.6;;;;;;;16.96;100;98321.05;;;;
2021/07/02 05:47:02;;;;;;;11.2;7;;;;;;;16.78;100;98325.3;;;;
2021/07/02 05:57:01;;;;;;;12.6;6.7;;;;;;;16.56;100;98335.69;;;;
2021/07/02 06:07:01;;;;;;;7.8;6.1;;;;;;;16.75;100;98331.46;;;;
2021/07/02 06:17:01;;;;;;;12;7.3;;;;;;;16.5;100;98349.89;;;;
2021/07/02 06:27:00;;;;;;;12;6.6;;;;;;;16.87;100;98340.3;;;;
2021/07/02 06:37:00;;;;;;;15.1;6.1;;;;;;;16.9;100;98349.7;;;;
2021/07/02 06:47:00;;;;;;;12;6.9;;;;;;;16.76;100;98357.55;;;;
2021/07/02 06:57:03;;;;;;;13.6;7.5;;;;;;;16.86;100;98363.23;;;;
2021/07/02 07:06:59;;;;;;;12.2;7.5;;;;;;;16.82;100;98356.13;;;;
2021/07/02 07:16:59;;;;;;;9.7;6.4;;;;;;;17.16;100;98351.82;;;;
2021/07/02 07:26:59;;;;;;;9.6;7.1;;;;;;;17.58;100;98342.64;;;;
2021/07/02 07:37:01;;;;;;;8.8;6.9;;;;;;;18.23;100;98360.98;;;;
2021/07/02 07:46:58;;;;;;;8;6.5;;;;;;;18.58;100;98351.49;;;;
2021/07/02 07:57:00;;;;;;;10.5;7;;;;;;;19.06;100;98349.08;;;;
2021/07/02 08:06:58;;;;;;;6.9;5.3;;;;;;;19.61;100;98355.69;;;;
2021/07/02 08:16:58;;;;;;;7.3;5.2;;;;;;;19.69;100;98364.77;;;;
2021/07/02 08:27:02;;;;;;;6.8;4.5;;;;;;;20.41;100;98357.75;;;;
2021/07/02 08:36:59;;;;;;;6.6;3.6;;;;;;;21.63;100;98354.65;;;;
2021/07/02 08:46:59;;;;;;;7.6;5;;;;;;;21.15;100;98356.76;;;;
2021/07/02 08:56:59;;;;;;;7.3;3.6;;;;;;;21.95;100;98370.09;;;;
2021/07/02 09:07:05;;;;;;;8.5;4.1;;;;;;;22.06;100;98354.44;;;;
2021/07/02 09:17:09;;;;;;;7.5;4.7;;;;;;;21.68;100;98370.75;;;;
2021/07/02 09:27:00;;;;;;;9;3.8;;;;;;;22.48;100;98363.91;;;;
2021/07/02 09:37:00;;;;;;;8.8;4.8;;;;;;;22.49;100;98366.25;;;;
2021/07/02 09:47:02;;;;;;;8.2;4.5;;;;;;;22.54;100;98348.61;;;;
2021/07/02 09:57:19;;;;;;;23.7;9.5;;;;;;;23.27;100;98357.19;;;;
2021/07/02 10:07:16;;;;;;;6.2;3.9;;;;;;;23.5;100;98361.08;;;;
2021/07/02 10:17:03;;;;;;;8.6;4.5;;;;;;;23.18;100;98354.87;;;;
2021/07/02 10:27:03;;;;;;;9.1;5.6;;;;;;;23.75;100;98358.23;;;;
2021/07/02 10:37:04;;;;;;;6.6;4.5;;;;;;;23.29;100;98354.84;;;;
2021/07/02 10:47:05;;;;;;;7.3;4.5;;;;;;;24.2;100;98355.66;;;;
2021/07/02 10:57:05;;;;;;;6.6;4.4;;;;;;;24.4;95.71582;98351.2;;;;
2021/07/02 11:07:06;;;;;;;6.5;3.7;;;;;;;24.49;97.87891;98355.06;;;;
2021/07/02 11:17:18;;;;;;;7.3;4.3;;;;;;;24.03;99.29199;98349.04;;;;
2021/07/02 11:27:07;;;;;;;5.4;3.4;;;;;;;23.75;98.49219;98343.67;;;;
2021/07/02 11:37:12;;;;;;;7.1;4.5;;;;;;;23.96;99.11719;98333.34;;;;
2021/07/02 11:47:09;;;;;;;6.2;3.7;;;;;;;24.48;96.14063;98325.94;;;;
2021/07/02 11:57:09;;;;;;;6.4;4.5;;;;;;;23.81;100;98315.33;;;;
2021/07/02 12:07:10;;;;;;;7.2;3.9;;;;;;;24.03;96.4834;98302.23;;;;
2021/07/02 12:17:11;;;;;;;8.2;4.1;;;;;;;24.24;96.82813;98293.07;;;;
2021/07/02 12:27:12;;;;;;;8.5;4.1;;;;;;;23.52;97.79492;98291.91;;;;
2021/07/02 12:37:12;;;;;;;6.7;3.7;;;;;;;23.64;95.81152;98285.94;;;;
2021/07/02 12:47:13;;;;;;;5.5;3;;;;;;;23.41;94.61914;98277.42;;;;
2021/07/02 12:57:13;;;;;;;6;3.5;;;;;;;23.99;95.94336;98271.97;;;;
2021/07/02 13:07:14;;;;;;;5.4;3.4;;;;;;;23.85;97.15039;98277.56;;;;
2021/07/02 13:17:14;;;;;;;7.6;3.7;;;;;;;23.2;97.84277;98289.25;;;;
2021/07/02 13:27:15;;;;;;;9.4;2.5;;;;;;;23.4;95.64551;98279.34;;;;
2021/07/02 13:37:15;;;;;;;4.5;2.8;;;;;;;23.08;94.2373;98286.16;;;;
2021/07/02 13:47:17;;;;;;;8.4;4.1;;;;;;;23.81;96.53027;98265.03;;;;
2021/07/02 13:57:18;;;;;;;4.4;2.7;;;;;;;24.22;96.21094;98265.16;;;;
2021/07/02 14:07:17;;;;;;;6.8;4.1;;;;;;;24.1;96.19824;98262.85;;;;
2021/07/02 14:17:17;;;;;;;11.3;3.7;;;;;;;24.47;93.56738;98249.97;;;;
2021/07/02 14:27:18;;;;;;;6.6;3;;;;;;;24.96;89.91992;98268.02;;;;
2021/07/02 14:37:19;;;;;;;4.6;3;;;;;;;24.42;91.50293;98279.95;;;;
2021/07/02 14:47:19;;;;;;;5;2.6;;;;;;;23.89;92.49805;98281.09;;;;
2021/07/02 14:57:20;;;;;;;7.5;3.4;;;;;;;23.22;97.94922;98275.13;;;;
2021/07/02 15:07:25;;;;;;;4.6;2.6;;;;;;;23.67;97.04297;98271.41;;;;
2021/07/02 15:17:21;;;;;;;3.7;2;;;;;;;24.31;90.08008;98259.96;;;;
2021/07/02 15:27:22;;;;;;;3.4;2;;;;;;;26.67;78.91016;98272.74;;;;
2021/07/02 15:37:22;;;;;;;6.3;4.6;;;;;;;23.31;93.67383;98270.75;;;;
2021/07/02 15:47:23;;;;;;;7.9;4.8;;;;;;;22.81;98.51855;98283.85;;;;
2021/07/02 15:57:24;;;;;;;9.3;5.3;;;;;;;23.49;94.65918;98284.46;;;;
2021/07/02 16:07:24;;;;;;;5.6;2.9;;;;;;;26.04;85.63867;98283.61;;;;
2021/07/02 16:17:25;;;;;;;7.3;2.7;;;;;;;28.2;73.30273;98298.15;;;;
2021/07/02 16:27:26;;;;;;;4;2.4;;;;;;;26.35;76.97168;98294.61;;;;
2021/07/02 16:37:27;;;;;;;7.6;3.7;;;;;;;24.89;83.18652;98294.88;;;;
2021/07/02 16:47:28;;;;;;;6.2;4;;;;;;;23.64;89.20605;98294.2;;;;
2021/07/02 16:57:28;;;;;;;6.3;3.6;;;;;;;22.27;97.30566;98289.76;;;;
2021/07/02 17:07:29;;;;;;;6;3.4;;;;;;;21.64;99.94141;98282.96;;;;
2021/07/02 17:17:29;;;;;;;6.4;4.4;;;;;;;21.31;100;98280.5;;;;
2021/07/02 17:27:29;;;;;;;13.2;5.1;;;;;;;20.78;100;98283.72;;;;
2021/07/02 17:37:30;;;;;;;8.1;5.5;;;;;;;20.44;100;98279.58;;;;
2021/07/02 17:47:30;;;;;;;8.8;5.5;;;;;;;20.41;100;98277.59;;;;
2021/07/02 17:57:30;;;;;;;8.5;6.1;;;;;;;20.51;100;98280.39;;;;
2021/07/02 18:07:30;;;;;;;11.3;6.4;;;;;;;20.08;100;98272.98;;;;
2021/07/02 18:17:30;;;;;;;10.4;6.5;;;;;;;19.96;100;98273.25;;;;
2021/07/02 18:27:30;;;;;;;10;8.6;;;;;;;19.64;100;98269.42;;;;
2021/07/02 18:37:30;;;;;;;13.2;10.3;;;;;;;19.42;100;98279.33;;;;
2021/07/02 18:47:30;;;;;;;9.6;8.3;;;;;;;19.24;100;98270.88;;;;
2021/07/02 18:57:30;;;;;;;10.4;7.2;;;;;;;18.87;100;98276.27;;;;
2021/07/02 19:07:30;;;;;;;13.2;8.6;;;;;;;18.32;100;98285.16;;;;
2021/07/02 19:17:30;;;;;;;12.5;8.5;;;;;;;18.06;100;98289.4;;;;
2021/07/02 19:27:30;;;;;;;7.8;6.3;;;;;;;17.98;100;98311.44;;;;
2021/07/02 19:37:30;;;;;;;12.8;6.3;;;;;;;17.76;100;98321.19;;;;
2021/07/02 19:47:29;;;;;;;9.6;5.7;;;;;;;17.53;100;98323.02;;;;
2021/07/02 19:57:29;;;;;;;13.5;4.5;;;;;;;17.48;100;98320.6;;;;
2021/07/02 20:07:29;;;;;;;6;3.9;;;;;;;17.24;100;98318.16;;;;
2021/07/02 20:17:28;;;;;;;7.1;5.6;;;;;;;17.34;100;98318.38;;;;
2021/07/02 20:27:28;;;;;;;14.3;7.1;;;;;;;17.25;100;98325.19;;;;
2021/07/02 20:37:28;;;;;;;11.6;6.4;;;;;;;17.29;100;98328.75;;;;
2021/07/02 20:47:27;;;;;;;9.5;5.6;;;;;;;17.34;100;98321.1;;;;
2021/07/02 20:57:27;;;;;;;11.1;6.9;;;;;;;17.4;100;98329.77;;;;
2021/07/02 21:07:27;;;;;;;13.2;7.5;;;;;;;17.38;100;98329.34;;;;
2021/07/02 21:17:26;;;;;;;12.1;7.7;;;;;;;17.41;100;98323.18;;;;
2021/07/02 21:27:26;;;;;;;8.7;6.6;;;;;;;17.43;100;98320.88;;;;
2021/07/02 21:37:26;;;;;;;8.3;6;;;;;;;17.42;100;98322.04;;;;
2021/07/02 21:47:25;;;;;;;10.8;8.1;;;;;;;17.43;100;98331.77;;;;
2021/07/02 21:57:25;;;;;;;9.9;7.3;;;;;;;17.36;100;98342.52;;;;
2021/07/02 22:07:25;;;;;;;10.6;7.5;;;;;;;17.24;100;98334.5;;;;
2021/07/02 22:17:24;;;;;;;12.1;8;;;;;;;17.19;100;98338.28;;;;
2021/07/02 22:27:24;;;;;;;15.2;7.9;;;;;;;17.14;100;98340.51;;;;
2021/07/02 22:37:23;;;;;;;7;4.7;;;;;;;16.99;100;98348.36;;;;
2021/07/02 22:47:23;;;;;;;11.1;7.1;;;;;;;17.03;100;98354.68;;;;
2021/07/02 22:57:22;;;;;;;7.9;4.8;;;;;;;16.98;100;98371.28;;;;
2021/07/02 23:07:22;;;;;;;9.1;5.6;;;;;;;16.93;100;98363.4;;;;
2021/07/02 23:17:22;;;;;;;10.4;6.5;;;;;;;16.82;100;98356.92;;;;
2021/07/02 23:27:21;;;;;;;10.4;7;;;;;;;16.71;100;98366.76;;;;
2021/07/02 23:37:21;;;;;;;8.7;6;;;;;;;16.67;100;98373.25;;;;
2021/07/02 23:47:20;;;;;;;8.5;5.3;;;;;;;16.59;100;98359.47;;;;
2021/07/02 23:57:20;;;;;;;9.5;5.5;;;;;;;16.69;100;98344.56;;;;
